createdAt,value
2023-04-17T00:01:43.607Z,102227.66
2023-04-17T00:04:11.349Z,102232.91
2023-04-17T00:06:40.091Z,102223.31
2023-04-17T00:09:07.022Z,102222.44
2023-04-17T00:11:33.893Z,102223.28
2023-04-17T00:14:00.761Z,102231.03
2023-04-17T00:16:27.960Z,102224.94
2023-04-17T00:18:55.607Z,102223.13
2023-04-17T00:21:22.679Z,102229.75
2023-04-17T00:23:49.696Z,102227.78
2023-04-17T00:26:16.630Z,102223.28
2023-04-17T00:28:43.725Z,102223.97
2023-04-17T00:31:10.631Z,102223.75
2023-04-17T00:33:37.712Z,102223.72
2023-04-17T00:36:05.063Z,102218.97
2023-04-17T00:38:31.979Z,102222.59
2023-04-17T00:40:58.873Z,102223.38
2023-04-17T00:43:25.915Z,102225.97
2023-04-17T00:45:53.823Z,102231.88
2023-04-17T00:48:24.065Z,102225.78
2023-04-17T00:50:51.392Z,102224.72
2023-04-17T00:53:19.216Z,102227.91
2023-04-17T00:55:48.194Z,102222.59
2023-04-17T00:58:15.905Z,102218.88
2023-04-17T01:00:42.813Z,102214.47
2023-04-17T01:03:10.593Z,102214.31
2023-04-17T01:05:38.309Z,102220.44
2023-04-17T01:08:05.852Z,102218.69
2023-04-17T01:10:32.767Z,102219.56
2023-04-17T01:13:07.694Z,102217.84
2023-04-17T01:15:36.467Z,102217.78
2023-04-17T01:18:04.610Z,102214.38
2023-04-17T01:20:32.475Z,102218.78
2023-04-17T01:23:00.650Z,102217.16
2023-04-17T01:25:28.273Z,102218.19
2023-04-17T01:27:56.404Z,102223.47
2023-04-17T01:30:23.940Z,102222.63
2023-04-17T01:32:56.955Z,102215.50
2023-04-17T01:35:23.866Z,102221.31
2023-04-17T01:37:50.758Z,102222.00
2023-04-17T01:40:17.683Z,102230.66
2023-04-17T01:42:45.430Z,102227.03
2023-04-17T01:45:12.348Z,102232.19
2023-04-17T01:47:40.627Z,102229.47
2023-04-17T01:50:09.153Z,102225.78
2023-04-17T01:52:36.817Z,102230.31
2023-04-17T01:55:04.638Z,102234.84
2023-04-17T01:57:33.039Z,102234.13
2023-04-17T02:00:00.008Z,102230.66
2023-04-17T02:02:27.118Z,102237.59
2023-04-17T02:04:54.649Z,102236.66
2023-04-17T02:07:21.715Z,102236.56
2023-04-17T02:09:48.614Z,102233.88
2023-04-17T02:12:16.326Z,102239.09
2023-04-17T02:14:43.385Z,102238.81
2023-04-17T02:17:10.715Z,102242.06
2023-04-17T02:19:37.623Z,102239.19
2023-04-17T02:22:04.548Z,102240.81
2023-04-17T02:24:31.774Z,102246.81
2023-04-17T02:27:00.786Z,102251.97
2023-04-17T02:29:27.683Z,102244.22
2023-04-17T02:31:55.127Z,102254.78
2023-04-17T02:34:22.002Z,102250.53
2023-04-17T02:36:51.054Z,102253.94
2023-04-17T02:39:19.806Z,102252.09
2023-04-17T02:41:46.750Z,102249.31
2023-04-17T02:44:13.698Z,102257.97
2023-04-17T02:46:40.655Z,102254.63
2023-04-17T02:49:09.464Z,102256.22
2023-04-17T02:51:36.621Z,102258.16
2023-04-17T02:54:03.675Z,102266.78
2023-04-17T02:56:30.603Z,102264.97
2023-04-17T02:58:57.601Z,102268.34
2023-04-17T03:01:24.573Z,102268.19
2023-04-17T03:03:52.501Z,102267.31
2023-04-17T03:06:19.805Z,102262.09
2023-04-17T03:08:46.751Z,102256.75
2023-04-17T03:11:13.833Z,102262.69
2023-04-17T03:13:40.737Z,102259.84
2023-04-17T03:16:08.095Z,102263.09
2023-04-17T03:18:43.643Z,102263.16
2023-04-17T03:21:10.690Z,102265.03
2023-04-17T03:23:37.596Z,102262.59
2023-04-17T03:26:06.103Z,102262.59
2023-04-17T03:28:33.903Z,102270.31
2023-04-17T03:31:02.282Z,102268.56
2023-04-17T03:33:31.478Z,102267.59
2023-04-17T03:35:58.788Z,102263.78
2023-04-17T03:38:26.197Z,102269.94
2023-04-17T03:40:54.262Z,102251.34
2023-04-17T03:43:23.606Z,102269.03
2023-04-17T03:45:51.381Z,102263.56
2023-04-17T03:48:18.746Z,102273.84
2023-04-17T03:50:46.826Z,102277.13
2023-04-17T03:53:13.717Z,102270.97
2023-04-17T03:55:41.344Z,102280.47
2023-04-17T03:58:11.664Z,102275.22
2023-04-17T04:00:38.833Z,102285.56
2023-04-17T04:03:10.179Z,102277.69
2023-04-17T04:05:41.028Z,102275.19
2023-04-17T04:08:09.785Z,102288.16
2023-04-17T04:10:55.235Z,102290.63
2023-04-17T04:13:31.657Z,102288.81
2023-04-17T04:16:01.454Z,102289.50
2023-04-17T04:18:30.210Z,102285.88
2023-04-17T04:20:57.820Z,102296.25
2023-04-17T04:23:30.581Z,102295.34
2023-04-17T04:25:58.122Z,102303.03
2023-04-17T04:28:33.337Z,102305.63
2023-04-17T04:31:02.693Z,102292.16
2023-04-17T04:33:35.255Z,102306.31
2023-04-17T04:36:03.615Z,102310.63
2023-04-17T04:38:33.320Z,102317.59
2023-04-17T04:41:10.418Z,102312.41
2023-04-17T04:43:38.826Z,102319.47
2023-04-17T04:46:08.773Z,102311.59
2023-04-17T04:48:42.833Z,102313.41
2023-04-17T04:51:10.133Z,102321.19
2023-04-17T04:53:38.765Z,102323.72
2023-04-17T04:56:06.147Z,102329.66
2023-04-17T04:58:34.317Z,102337.41
2023-04-17T05:01:02.817Z,102331.25
2023-04-17T05:03:37.317Z,102339.81
2023-04-17T05:06:06.002Z,102344.88
2023-04-17T05:08:46.209Z,102342.16
2023-04-17T05:11:15.688Z,102345.66
2023-04-17T05:13:43.499Z,102343.28
2023-04-17T05:16:18.853Z,102346.06
2023-04-17T05:18:47.995Z,102344.22
2023-04-17T05:21:18.517Z,102347.78
2023-04-17T05:23:49.204Z,102359.03
2023-04-17T05:26:16.291Z,102362.31
2023-04-17T05:28:45.110Z,102358.63
2023-04-17T05:31:15.798Z,102363.03
2023-04-17T05:33:43.298Z,102366.50
2023-04-17T05:36:10.601Z,102367.47
2023-04-17T05:38:40.331Z,102359.44
2023-04-17T05:41:09.595Z,102378.72
2023-04-17T05:43:37.553Z,102377.84
2023-04-17T05:46:04.746Z,102375.28
2023-04-17T05:48:32.156Z,102375.44
2023-04-17T05:50:59.124Z,102372.13
2023-04-17T05:53:26.549Z,102378.28
2023-04-17T05:55:57.344Z,102381.75
2023-04-17T05:58:24.886Z,102377.31
2023-04-17T06:00:56.059Z,102372.44
2023-04-17T06:03:24.074Z,102371.56
2023-04-17T06:05:58.263Z,102371.50
2023-04-17T06:08:26.066Z,102375.78
2023-04-17T06:10:53.207Z,102368.00
2023-04-17T06:13:20.694Z,102369.03
2023-04-17T06:15:51.406Z,102372.44
2023-04-17T06:18:18.756Z,102374.56
2023-04-17T06:20:46.203Z,102375.53
2023-04-17T06:23:13.444Z,102371.31
2023-04-17T06:25:40.577Z,102371.63
2023-04-17T06:28:07.540Z,102346.19
2023-04-17T06:30:35.014Z,102374.59
2023-04-17T06:33:02.712Z,102368.75
2023-04-17T06:35:30.771Z,102374.66
2023-04-17T06:38:04.988Z,102380.28
2023-04-17T06:40:33.069Z,102385.59
2023-04-17T06:43:00.002Z,102376.56
2023-04-17T06:45:28.347Z,102382.06
2023-04-17T06:47:56.803Z,102380.44
2023-04-17T06:50:23.876Z,102379.75
2023-04-17T06:52:50.784Z,102385.88
2023-04-17T06:55:17.972Z,102385.97
2023-04-17T06:57:44.860Z,102390.38
2023-04-17T07:00:12.693Z,102388.84
2023-04-17T07:02:39.701Z,102397.69
2023-04-17T07:05:07.645Z,102395.88
2023-04-17T07:07:35.911Z,102395.97
2023-04-17T07:10:04.313Z,102404.94
2023-04-17T07:12:31.235Z,102408.66
2023-04-17T07:14:58.156Z,102405.28
2023-04-17T07:17:25.115Z,102398.44
2023-04-17T07:19:52.044Z,102401.25
2023-04-17T07:22:18.964Z,102404.25
2023-04-17T07:24:45.894Z,102408.13
2023-04-17T07:27:12.782Z,102415.34
2023-04-17T07:29:39.672Z,102411.97
2023-04-17T07:32:06.994Z,102399.66
2023-04-17T07:34:34.381Z,102424.16
2023-04-17T07:37:01.703Z,102420.34
2023-04-17T07:39:31.553Z,102426.06
2023-04-17T07:41:58.488Z,102431.69
2023-04-17T07:44:25.390Z,102442.00
2023-04-17T07:46:52.376Z,102435.59
2023-04-17T07:49:19.291Z,102437.25
2023-04-17T07:51:46.192Z,102445.38
2023-04-17T07:54:13.253Z,102456.06
2023-04-17T07:56:40.395Z,102448.41
2023-04-17T07:59:07.319Z,102445.22
2023-04-17T08:01:34.246Z,102444.53
2023-04-17T08:04:02.213Z,102452.63
2023-04-17T08:06:29.412Z,102462.09
2023-04-17T08:08:56.422Z,102471.19
2023-04-17T08:11:23.330Z,102471.13
2023-04-17T08:13:50.244Z,102482.31
2023-04-17T08:16:17.704Z,102483.72
2023-04-17T08:18:44.648Z,102494.63
2023-04-17T08:21:11.798Z,102491.84
2023-04-17T08:23:38.834Z,102484.72
2023-04-17T08:26:05.824Z,102500.84
2023-04-17T08:28:32.732Z,102476.31
2023-04-17T08:30:59.949Z,102493.06
2023-04-17T08:33:27.154Z,102498.34
2023-04-17T08:35:54.202Z,102494.13
2023-04-17T08:38:21.209Z,102508.16
2023-04-17T08:40:51.997Z,102500.28
2023-04-17T08:43:21.001Z,102501.91
2023-04-17T08:45:53.770Z,102500.94
2023-04-17T08:48:22.905Z,102501.94
2023-04-17T08:50:52.855Z,102513.19
2023-04-17T08:53:20.989Z,102503.66
2023-04-17T08:55:48.370Z,102497.41
2023-04-17T08:58:15.590Z,102518.22
2023-04-17T09:00:44.512Z,102505.88
2023-04-17T09:03:14.106Z,102519.28
2023-04-17T09:05:45.870Z,102524.53
2023-04-17T09:08:20.773Z,102523.50
2023-04-17T09:10:55.256Z,102524.25
2023-04-17T09:13:29.415Z,102521.00
2023-04-17T09:16:13.378Z,102514.16
2023-04-17T09:18:43.027Z,102504.53
2023-04-17T09:21:10.353Z,102531.84
2023-04-17T09:23:55.405Z,102517.28
2023-04-17T09:26:26.887Z,102531.50
2023-04-17T09:29:11.078Z,102515.19
2023-04-17T09:31:41.106Z,102516.41
2023-04-17T09:34:12.942Z,102524.50
2023-04-17T09:36:42.086Z,102531.78
2023-04-17T09:39:24.433Z,102525.88
2023-04-17T09:42:03.575Z,102524.91
2023-04-17T09:44:31.125Z,102529.31
2023-04-17T09:46:58.773Z,102527.66
2023-04-17T09:49:39.695Z,102529.59
2023-04-17T09:52:07.214Z,102546.34
2023-04-17T09:54:37.712Z,102537.47
2023-04-17T09:57:08.719Z,102524.94
2023-04-17T09:59:40.124Z,102539.91
2023-04-17T10:02:12.441Z,102537.56
2023-04-17T10:04:44.360Z,102543.94
2023-04-17T10:07:13.219Z,102542.41
2023-04-17T10:09:41.958Z,102532.00
2023-04-17T10:12:18.690Z,102538.78
2023-04-17T10:14:48.775Z,102539.47
2023-04-17T10:17:37.134Z,102539.22
2023-04-17T10:20:19.924Z,102541.81
2023-04-17T10:22:57.166Z,102548.25
2023-04-17T10:25:28.347Z,102540.59
2023-04-17T10:28:00.796Z,102543.94
2023-04-17T10:30:54.726Z,102529.22
2023-04-17T10:33:25.630Z,102536.84
2023-04-17T10:35:53.083Z,102540.34
2023-04-17T10:38:35.701Z,102540.19
2023-04-17T10:41:05.024Z,102534.19
2023-04-17T10:43:32.019Z,102529.81
2023-04-17T10:46:11.086Z,102524.56
2023-04-17T10:48:50.572Z,102530.91
2023-04-17T10:51:23.958Z,102531.81
2023-04-17T10:53:55.364Z,102530.00
2023-04-17T10:56:37.203Z,102530.19
2023-04-17T10:59:13.116Z,102527.47
2023-04-17T11:01:57.944Z,102527.47
2023-04-17T11:04:30.286Z,102531.94
2023-04-17T11:06:57.490Z,102531.81
2023-04-17T11:09:27.918Z,102527.22
2023-04-17T11:11:55.311Z,102516.38
2023-04-17T11:14:23.497Z,102534.81
2023-04-17T11:16:51.800Z,102534.88
2023-04-17T11:19:22.849Z,102542.78
2023-04-17T11:21:55.180Z,102539.22
2023-04-17T11:24:32.324Z,102542.69
2023-04-17T11:27:01.978Z,102538.47
2023-04-17T11:29:29.579Z,102540.34
2023-04-17T11:31:58.668Z,102555.91
2023-04-17T11:34:26.784Z,102553.31
2023-04-17T11:36:59.392Z,102561.97
2023-04-17T11:39:30.417Z,102551.47
2023-04-17T11:41:57.917Z,102572.31
2023-04-17T11:44:25.767Z,102569.63
2023-04-17T11:46:54.891Z,102573.78
2023-04-17T11:49:30.086Z,102566.41
2023-04-17T11:52:01.768Z,102566.34
2023-04-17T11:54:39.673Z,102570.75
2023-04-17T11:57:12.795Z,102553.22
2023-04-17T11:59:45.437Z,102568.44
2023-04-17T12:02:12.485Z,102558.16
2023-04-17T12:04:40.424Z,102564.59
2023-04-17T12:07:21.628Z,102567.53
2023-04-17T12:09:56.906Z,102565.91
2023-04-17T12:12:23.742Z,102569.59
2023-04-17T12:14:50.619Z,102568.75
2023-04-17T12:17:17.469Z,102563.44
2023-04-17T12:19:45.266Z,102574.66
2023-04-17T12:22:12.122Z,102573.69
2023-04-17T12:24:38.982Z,102549.91
2023-04-17T12:27:05.849Z,102568.50
2023-04-17T12:29:43.684Z,102577.47
2023-04-17T12:32:11.337Z,102572.41
2023-04-17T12:34:38.234Z,102570.00
2023-04-17T12:37:05.399Z,102559.72
2023-04-17T12:39:32.745Z,102561.72
2023-04-17T12:41:59.608Z,102570.53
2023-04-17T12:44:26.465Z,102563.69
2023-04-17T12:46:53.314Z,102577.69
2023-04-17T12:49:20.509Z,102574.38
2023-04-17T12:51:47.381Z,102577.94
2023-04-17T12:54:14.430Z,102574.31
2023-04-17T12:56:41.402Z,102577.69
2023-04-17T12:59:08.288Z,102572.50
2023-04-17T13:01:35.302Z,102568.91
2023-04-17T13:04:02.619Z,102573.13
2023-04-17T13:06:29.717Z,102572.78
2023-04-17T13:08:56.648Z,102576.66
2023-04-17T13:11:23.502Z,102572.25
2023-04-17T13:13:50.419Z,102571.97
2023-04-17T13:16:17.577Z,102566.13
2023-04-17T13:18:44.558Z,102584.47
2023-04-17T13:21:11.397Z,102568.84
2023-04-17T13:23:38.500Z,102572.16
2023-04-17T13:26:05.464Z,102585.88
2023-04-17T13:28:32.337Z,102572.84
2023-04-17T13:30:59.281Z,102575.59
2023-04-17T13:33:26.212Z,102576.72
2023-04-17T13:35:53.877Z,102567.41
2023-04-17T13:38:20.789Z,102570.34
2023-04-17T13:40:47.658Z,102571.28
2023-04-17T13:43:14.534Z,102568.66
2023-04-17T13:45:41.781Z,102569.63
2023-04-17T13:48:08.777Z,102574.03
2023-04-17T13:50:35.679Z,102574.63
2023-04-17T13:53:02.945Z,102562.47
2023-04-17T13:55:29.845Z,102571.28
2023-04-17T13:57:57.479Z,102572.41
2023-04-17T14:00:24.447Z,102557.69
2023-04-17T14:02:51.540Z,102562.97
2023-04-17T14:05:18.660Z,102581.09
2023-04-17T14:07:45.607Z,102566.09
2023-04-17T14:10:12.596Z,102572.00
2023-04-17T14:12:39.545Z,102577.91
2023-04-17T14:15:07.401Z,102568.28
2023-04-17T14:17:37.945Z,102575.16
2023-04-17T14:20:06.052Z,102577.28
2023-04-17T14:22:32.977Z,102577.84
2023-04-17T14:24:59.850Z,102568.06
2023-04-17T14:27:26.993Z,102587.84
2023-04-17T14:29:53.880Z,102577.16
2023-04-17T14:32:20.815Z,102572.88
2023-04-17T14:34:47.708Z,102579.13
2023-04-17T14:37:14.773Z,102577.69
2023-04-17T14:39:41.651Z,102575.38
2023-04-17T14:42:08.558Z,102571.09
2023-04-17T14:44:35.516Z,102579.81
2023-04-17T14:47:02.801Z,102569.34
2023-04-17T14:49:30.294Z,102579.72
2023-04-17T14:51:57.156Z,102571.03
2023-04-17T14:54:24.018Z,102578.06
2023-04-17T14:56:50.893Z,102572.78
2023-04-17T14:59:17.868Z,102586.41
2023-04-17T15:01:44.793Z,102582.72
2023-04-17T15:04:12.058Z,102581.69
2023-04-17T15:06:39.280Z,102581.59
2023-04-17T15:09:06.753Z,102577.19
2023-04-17T15:11:33.651Z,102582.41
2023-04-17T15:14:00.837Z,102580.31
2023-04-17T15:16:27.795Z,102585.38
2023-04-17T15:18:54.696Z,102578.06
2023-04-17T15:21:21.623Z,102584.78
2023-04-17T15:23:48.507Z,102576.81
2023-04-17T15:26:15.476Z,102589.56
2023-04-17T15:28:42.423Z,102587.78
2023-04-17T15:31:09.481Z,102579.78
2023-04-17T15:33:37.396Z,102592.09
2023-04-17T15:36:04.622Z,102591.88
2023-04-17T15:38:31.515Z,102583.16
2023-04-17T15:40:58.902Z,102584.19
2023-04-17T15:43:25.958Z,102593.81
2023-04-17T15:45:53.304Z,102589.56
2023-04-17T15:48:20.223Z,102588.63
2023-04-17T15:50:47.097Z,102597.22
2023-04-17T15:53:13.984Z,102591.13
2023-04-17T15:55:41.394Z,102589.28
2023-04-17T15:58:08.477Z,102590.97
2023-04-17T16:00:35.458Z,102599.72
2023-04-17T16:03:02.463Z,102581.13
2023-04-17T16:05:30.149Z,102597.22
2023-04-17T16:07:57.265Z,102599.19
2023-04-17T16:10:24.233Z,102608.78
2023-04-17T16:12:51.201Z,102598.34
2023-04-17T16:15:18.243Z,102605.38
2023-04-17T16:17:45.839Z,102603.56
2023-04-17T16:20:13.424Z,102609.38
2023-04-17T16:22:40.647Z,102605.88
2023-04-17T16:25:08.350Z,102611.97
2023-04-17T16:27:37.089Z,102600.84
2023-04-17T16:30:05.144Z,102606.16
2023-04-17T16:32:32.188Z,102603.38
2023-04-17T16:34:59.255Z,102612.16
2023-04-17T16:37:26.294Z,102619.91
2023-04-17T16:39:53.320Z,102613.00
2023-04-17T16:42:20.304Z,102612.03
2023-04-17T16:44:47.603Z,102608.56
2023-04-17T16:47:14.943Z,102610.91
2023-04-17T16:49:42.822Z,102612.75
2023-04-17T16:52:09.770Z,102610.16
2023-04-17T16:54:36.683Z,102614.47
2023-04-17T16:57:03.639Z,102623.13
2023-04-17T16:59:30.595Z,102618.69
2023-04-17T17:01:57.948Z,102607.19
2023-04-17T17:04:25.674Z,102612.66
2023-04-17T17:06:52.655Z,102617.91
2023-04-17T17:09:20.312Z,102615.84
2023-04-17T17:11:47.719Z,102626.38
2023-04-17T17:14:16.106Z,102620.09
2023-04-17T17:16:43.126Z,102614.97
2023-04-17T17:19:10.391Z,102626.34
2023-04-17T17:21:38.097Z,102631.56
2023-04-17T17:24:05.444Z,102637.63
2023-04-17T17:26:32.343Z,102636.75
2023-04-17T17:28:59.223Z,102642.66
2023-04-17T17:31:26.164Z,102643.19
2023-04-17T17:33:54.966Z,102645.50
2023-04-17T17:36:21.973Z,102639.34
2023-04-17T17:38:55.390Z,102642.84
2023-04-17T17:41:24.036Z,102636.28
2023-04-17T17:43:51.004Z,102637.56
2023-04-17T17:46:19.422Z,102646.13
2023-04-17T17:48:46.384Z,102641.75
2023-04-17T17:51:13.446Z,102651.97
2023-04-17T17:53:41.134Z,102650.06
2023-04-17T17:56:08.148Z,102642.97
2023-04-17T17:58:35.064Z,102643.75
2023-04-17T18:01:02.263Z,102646.44
2023-04-17T18:03:29.426Z,102671.56
2023-04-17T18:05:56.396Z,102642.88
2023-04-17T18:08:23.315Z,102646.44
2023-04-17T18:10:50.213Z,102650.03
2023-04-17T18:13:17.088Z,102648.44
2023-04-17T18:15:44.045Z,102651.13
2023-04-17T18:18:10.946Z,102641.56
2023-04-17T18:20:39.415Z,102649.56
2023-04-17T18:23:06.505Z,102651.22
2023-04-17T18:25:35.517Z,102651.97
2023-04-17T18:28:03.674Z,102666.59
2023-04-17T18:30:30.894Z,102668.97
2023-04-17T18:32:57.833Z,102674.03
2023-04-17T18:35:24.797Z,102672.91
2023-04-17T18:37:52.991Z,102671.81
2023-04-17T18:40:19.951Z,102679.50
2023-04-17T18:42:46.861Z,102675.00
2023-04-17T18:45:15.777Z,102682.78
2023-04-17T18:47:42.953Z,102696.53
2023-04-17T18:50:11.126Z,102683.47
2023-04-17T18:52:42.645Z,102684.19
2023-04-17T18:55:11.358Z,102690.19
2023-04-17T18:57:38.361Z,102677.91
2023-04-17T19:00:06.072Z,102686.84
2023-04-17T19:02:33.199Z,102687.78
2023-04-17T19:05:00.467Z,102686.91
2023-04-17T19:07:29.239Z,102697.94
2023-04-17T19:09:56.158Z,102690.91
2023-04-17T19:12:23.059Z,102696.91
2023-04-17T19:14:50.068Z,102696.97
2023-04-17T19:17:16.975Z,102697.88
2023-04-17T19:19:43.851Z,102692.66
2023-04-17T19:22:10.725Z,102693.41
2023-04-17T19:24:37.588Z,102705.53
2023-04-17T19:27:04.492Z,102700.25
2023-04-17T19:29:31.421Z,102693.19
2023-04-17T19:31:58.383Z,102707.09
2023-04-17T19:34:25.419Z,102697.47
2023-04-17T19:36:52.438Z,102699.56
2023-04-17T19:39:19.382Z,102707.16
2023-04-17T19:41:50.788Z,102697.44
2023-04-17T19:44:18.566Z,102700.66
2023-04-17T19:46:45.438Z,102700.53
2023-04-17T19:49:12.778Z,102701.53
2023-04-17T19:51:39.881Z,102717.88
2023-04-17T19:54:06.844Z,102722.72
2023-04-17T19:56:33.828Z,102717.94
2023-04-17T19:59:04.765Z,102711.44
2023-04-17T20:01:31.813Z,102720.81
2023-04-17T20:03:59.454Z,102716.97
2023-04-17T20:06:26.786Z,102720.47
2023-04-17T20:08:55.539Z,102722.97
2023-04-17T20:11:23.595Z,102718.47
2023-04-17T20:13:51.742Z,102726.25
2023-04-17T20:16:18.808Z,102720.84
2023-04-17T20:18:45.837Z,102714.75
2023-04-17T20:21:13.151Z,102724.41
2023-04-17T20:23:40.877Z,102723.44
2023-04-17T20:26:08.108Z,102712.56
2023-04-17T20:28:35.127Z,102710.72
2023-04-17T20:31:03.564Z,102711.47
2023-04-17T20:33:30.886Z,102715.53
2023-04-17T20:35:57.941Z,102717.88
2023-04-17T20:38:25.638Z,102723.06
2023-04-17T20:40:52.622Z,102716.94
2023-04-17T20:43:19.563Z,102725.91
2023-04-17T20:45:48.308Z,102720.50
2023-04-17T20:48:15.317Z,102718.53
2023-04-17T20:50:42.642Z,102726.97
2023-04-17T20:53:09.524Z,102728.50
2023-04-17T20:55:39.454Z,102729.97
2023-04-17T20:58:06.537Z,102727.91
2023-04-17T21:00:34.625Z,102724.06
2023-04-17T21:03:02.029Z,102728.88
2023-04-17T21:05:29.185Z,102726.69
2023-04-17T21:07:57.645Z,102726.06
2023-04-17T21:10:24.618Z,102721.47
2023-04-17T21:12:51.560Z,102729.69
2023-04-17T21:15:18.535Z,102726.00
2023-04-17T21:17:47.570Z,102733.44
2023-04-17T21:20:14.830Z,102719.94
2023-04-17T21:22:41.743Z,102723.66
2023-04-17T21:25:09.004Z,102721.06
2023-04-17T21:27:36.135Z,102724.63
2023-04-17T21:30:03.865Z,102721.13
2023-04-17T21:32:30.840Z,102727.28
2023-04-17T21:34:57.719Z,102723.72
2023-04-17T21:37:24.652Z,102725.34
2023-04-17T21:39:51.530Z,102722.59
2023-04-17T21:42:18.882Z,102725.19
2023-04-17T21:44:45.771Z,102732.94
2023-04-17T21:47:14.525Z,102738.66
2023-04-17T21:49:41.471Z,102730.47
2023-04-17T21:52:08.406Z,102724.97
2023-04-17T21:54:35.283Z,102731.91
2023-04-17T21:57:02.193Z,102728.53
2023-04-17T21:59:29.093Z,102733.78
2023-04-17T22:01:56.151Z,102736.28
2023-04-17T22:04:23.414Z,102734.50
2023-04-17T22:06:52.055Z,102730.25
2023-04-17T22:09:19.927Z,102740.41
2023-04-17T22:11:47.939Z,102737.03
2023-04-17T22:14:16.432Z,102731.59
2023-04-17T22:16:43.681Z,102738.63
2023-04-17T22:19:10.823Z,102741.31
2023-04-17T22:21:37.715Z,102732.97
2023-04-17T22:24:04.696Z,102742.84
2023-04-17T22:26:31.595Z,102736.94
2023-04-17T22:28:58.500Z,102746.66
2023-04-17T22:31:25.454Z,102749.66
2023-04-17T22:33:52.397Z,102753.47
2023-04-17T22:36:19.309Z,102744.88
2023-04-17T22:38:46.229Z,102746.47
2023-04-17T22:41:13.094Z,102749.00
2023-04-17T22:43:39.989Z,102747.34
2023-04-17T22:46:06.869Z,102746.81
2023-04-17T22:48:34.931Z,102748.69
2023-04-17T22:51:02.308Z,102739.34
2023-04-17T22:53:29.565Z,102737.72
2023-04-17T22:56:04.046Z,102743.31
2023-04-17T22:58:33.333Z,102751.31
2023-04-17T23:01:00.617Z,102730.59
2023-04-17T23:03:27.802Z,102746.56
2023-04-17T23:05:54.845Z,102735.41
2023-04-17T23:08:23.339Z,102746.81
2023-04-17T23:11:00.672Z,102739.28
2023-04-17T23:13:28.253Z,102744.59
2023-04-17T23:15:55.644Z,102741.81
2023-04-17T23:18:22.539Z,102745.56
2023-04-17T23:20:49.839Z,102742.25
2023-04-17T23:23:18.431Z,102750.16
2023-04-17T23:25:45.359Z,102740.88
2023-04-17T23:28:12.305Z,102741.59
2023-04-17T23:30:39.221Z,102732.94
2023-04-17T23:33:06.278Z,102738.03
2023-04-17T23:35:33.192Z,102733.59
2023-04-17T23:38:00.335Z,102736.28
2023-04-17T23:40:28.117Z,102737.94
2023-04-17T23:42:55.311Z,102738.88
2023-04-17T23:45:22.179Z,102738.63
2023-04-17T23:47:49.144Z,102738.69
2023-04-17T23:50:16.156Z,102738.47
2023-04-17T23:52:43.050Z,102736.53
2023-04-17T23:55:09.934Z,102742.47
2023-04-17T23:57:37.880Z,102742.22
